sensor_id;sensor_type;location;lat;lon;timestamp;P1;durP1;ratioP1;P2;durP2;ratioP2
21472;SDS011;10898;48.072;11.682;2022-12-11T00:01:48;42.78;;;24.23;;
21472;SDS011;10898;48.072;11.682;2022-12-11T00:03:50;41.15;;;25.02;;
21472;SDS011;10898;48.072;11.682;2022-12-11T00:05:53;38.22;;;21.52;;
21472;SDS011;10898;48.072;11.682;2022-12-11T00:07:55;43.13;;;24.85;;
21472;SDS011;10898;48.072;11.682;2022-12-11T00:09:58;39.65;;;22.25;;
21472;SDS011;10898;48.072;11.682;2022-12-11T00:12:00;36.55;;;21.30;;
21472;SDS011;10898;48.072;11.682;2022-12-11T00:14:02;39.42;;;22.92;;
21472;SDS011;10898;48.072;11.682;2022-12-11T00:16:04;36.67;;;21.77;;
21472;SDS011;10898;48.072;11.682;2022-12-11T00:18:07;37.40;;;21.42;;
21472;SDS011;10898;48.072;11.682;2022-12-11T00:20:13;41.20;;;22.98;;
21472;SDS011;10898;48.072;11.682;2022-12-11T00:22:15;38.80;;;22.52;;
21472;SDS011;10898;48.072;11.682;2022-12-11T00:24:17;38.42;;;22.83;;
21472;SDS011;10898;48.072;11.682;2022-12-11T00:26:19;37.35;;;21.63;;
21472;SDS011;10898;48.072;11.682;2022-12-11T00:28:21;38.88;;;22.60;;
21472;SDS011;10898;48.072;11.682;2022-12-11T00:30:23;39.60;;;21.27;;
21472;SDS011;10898;48.072;11.682;2022-12-11T00:32:26;40.80;;;21.90;;
21472;SDS011;10898;48.072;11.682;2022-12-11T00:34:29;37.15;;;20.77;;
21472;SDS011;10898;48.072;11.682;2022-12-11T00:36:31;38.35;;;22.65;;
21472;SDS011;10898;48.072;11.682;2022-12-11T00:38:33;37.90;;;22.25;;
21472;SDS011;10898;48.072;11.682;2022-12-11T00:40:35;36.03;;;21.58;;
21472;SDS011;10898;48.072;11.682;2022-12-11T00:44:40;36.95;;;20.65;;
21472;SDS011;10898;48.072;11.682;2022-12-11T00:46:42;37.88;;;22.15;;
21472;SDS011;10898;48.072;11.682;2022-12-11T00:48:44;37.15;;;20.40;;
21472;SDS011;10898;48.072;11.682;2022-12-11T00:50:48;38.17;;;21.92;;
21472;SDS011;10898;48.072;11.682;2022-12-11T00:52:50;35.17;;;21.23;;
21472;SDS011;10898;48.072;11.682;2022-12-11T00:54:52;35.38;;;20.38;;
21472;SDS011;10898;48.072;11.682;2022-12-11T00:56:55;36.50;;;19.85;;
21472;SDS011;10898;48.072;11.682;2022-12-11T00:58:57;35.75;;;20.10;;
21472;SDS011;10898;48.072;11.682;2022-12-11T01:01:06;35.83;;;20.58;;
21472;SDS011;10898;48.072;11.682;2022-12-11T01:03:09;40.42;;;21.83;;
21472;SDS011;10898;48.072;11.682;2022-12-11T01:05:11;37.75;;;21.52;;
21472;SDS011;10898;48.072;11.682;2022-12-11T01:07:13;32.03;;;20.38;;
21472;SDS011;10898;48.072;11.682;2022-12-11T01:09:15;38.75;;;21.42;;
21472;SDS011;10898;48.072;11.682;2022-12-11T01:11:36;34.55;;;20.98;;
21472;SDS011;10898;48.072;11.682;2022-12-11T01:15:42;39.17;;;21.03;;
21472;SDS011;10898;48.072;11.682;2022-12-11T01:17:44;34.53;;;19.67;;
21472;SDS011;10898;48.072;11.682;2022-12-11T01:19:47;35.25;;;20.17;;
21472;SDS011;10898;48.072;11.682;2022-12-11T01:21:49;35.47;;;20.23;;
21472;SDS011;10898;48.072;11.682;2022-12-11T01:23:51;33.30;;;19.17;;
21472;SDS011;10898;48.072;11.682;2022-12-11T01:25:53;34.28;;;19.67;;
21472;SDS011;10898;48.072;11.682;2022-12-11T01:27:55;32.83;;;19.55;;
21472;SDS011;10898;48.072;11.682;2022-12-11T01:29:57;33.67;;;19.48;;
21472;SDS011;10898;48.072;11.682;2022-12-11T01:32:00;36.70;;;19.85;;
21472;SDS011;10898;48.072;11.682;2022-12-11T01:34:02;32.10;;;19.25;;
21472;SDS011;10898;48.072;11.682;2022-12-11T01:36:11;35.17;;;19.67;;
21472;SDS011;10898;48.072;11.682;2022-12-11T01:38:14;35.75;;;19.75;;
21472;SDS011;10898;48.072;11.682;2022-12-11T01:40:17;33.28;;;19.20;;
21472;SDS011;10898;48.072;11.682;2022-12-11T01:42:19;32.60;;;19.08;;
21472;SDS011;10898;48.072;11.682;2022-12-11T01:46:24;34.55;;;19.38;;
21472;SDS011;10898;48.072;11.682;2022-12-11T01:48:29;31.73;;;19.10;;
21472;SDS011;10898;48.072;11.682;2022-12-11T01:50:33;35.22;;;19.05;;
21472;SDS011;10898;48.072;11.682;2022-12-11T01:52:36;35.70;;;20.10;;
21472;SDS011;10898;48.072;11.682;2022-12-11T01:54:38;37.25;;;20.58;;
21472;SDS011;10898;48.072;11.682;2022-12-11T01:56:40;36.47;;;21.30;;
21472;SDS011;10898;48.072;11.682;2022-12-11T01:58:48;35.83;;;20.13;;
21472;SDS011;10898;48.072;11.682;2022-12-11T02:00:51;36.53;;;20.73;;
21472;SDS011;10898;48.072;11.682;2022-12-11T02:02:54;33.33;;;19.52;;
21472;SDS011;10898;48.072;11.682;2022-12-11T02:04:56;34.92;;;20.80;;
21472;SDS011;10898;48.072;11.682;2022-12-11T02:06:58;33.17;;;19.88;;
21472;SDS011;10898;48.072;11.682;2022-12-11T02:09:01;34.13;;;18.92;;
21472;SDS011;10898;48.072;11.682;2022-12-11T02:11:05;33.85;;;19.75;;
21472;SDS011;10898;48.072;11.682;2022-12-11T02:13:12;34.58;;;19.30;;
21472;SDS011;10898;48.072;11.682;2022-12-11T02:17:37;34.38;;;19.67;;
21472;SDS011;10898;48.072;11.682;2022-12-11T02:21:45;36.70;;;20.77;;
21472;SDS011;10898;48.072;11.682;2022-12-11T02:24:00;35.10;;;19.67;;
21472;SDS011;10898;48.072;11.682;2022-12-11T02:28:16;34.22;;;19.40;;
21472;SDS011;10898;48.072;11.682;2022-12-11T02:30:19;33.25;;;18.77;;
21472;SDS011;10898;48.072;11.682;2022-12-11T02:32:24;32.22;;;18.10;;
21472;SDS011;10898;48.072;11.682;2022-12-11T02:34:40;30.25;;;17.83;;
21472;SDS011;10898;48.072;11.682;2022-12-11T02:36:44;31.42;;;18.98;;
21472;SDS011;10898;48.072;11.682;2022-12-11T02:38:48;30.98;;;18.20;;
21472;SDS011;10898;48.072;11.682;2022-12-11T02:40:52;31.55;;;18.48;;
21472;SDS011;10898;48.072;11.682;2022-12-11T02:42:56;31.70;;;18.02;;
21472;SDS011;10898;48.072;11.682;2022-12-11T02:44:59;33.80;;;18.75;;
21472;SDS011;10898;48.072;11.682;2022-12-11T02:47:04;32.35;;;17.85;;
21472;SDS011;10898;48.072;11.682;2022-12-11T02:49:08;30.77;;;18.13;;
21472;SDS011;10898;48.072;11.682;2022-12-11T02:51:12;33.22;;;18.52;;
21472;SDS011;10898;48.072;11.682;2022-12-11T02:53:17;29.38;;;17.38;;
21472;SDS011;10898;48.072;11.682;2022-12-11T02:55:20;29.73;;;18.25;;
21472;SDS011;10898;48.072;11.682;2022-12-11T02:57:24;31.05;;;18.40;;
21472;SDS011;10898;48.072;11.682;2022-12-11T02:59:30;29.80;;;17.83;;
21472;SDS011;10898;48.072;11.682;2022-12-11T03:01:34;31.95;;;18.17;;
21472;SDS011;10898;48.072;11.682;2022-12-11T03:03:37;31.73;;;18.45;;
21472;SDS011;10898;48.072;11.682;2022-12-11T03:05:39;28.25;;;17.65;;
21472;SDS011;10898;48.072;11.682;2022-12-11T03:09:44;27.27;;;16.15;;
21472;SDS011;10898;48.072;11.682;2022-12-11T03:11:47;29.75;;;17.38;;
21472;SDS011;10898;48.072;11.682;2022-12-11T03:13:49;29.00;;;17.80;;
21472;SDS011;10898;48.072;11.682;2022-12-11T03:18:17;34.25;;;18.17;;
21472;SDS011;10898;48.072;11.682;2022-12-11T03:22:27;28.73;;;17.35;;
21472;SDS011;10898;48.072;11.682;2022-12-11T03:24:33;32.08;;;18.17;;
21472;SDS011;10898;48.072;11.682;2022-12-11T03:26:40;27.85;;;16.52;;
21472;SDS011;10898;48.072;11.682;2022-12-11T03:30:45;29.65;;;16.88;;
21472;SDS011;10898;48.072;11.682;2022-12-11T03:32:52;25.13;;;15.10;;
21472;SDS011;10898;48.072;11.682;2022-12-11T03:34:59;25.33;;;16.00;;
21472;SDS011;10898;48.072;11.682;2022-12-11T03:37:04;26.88;;;17.00;;
21472;SDS011;10898;48.072;11.682;2022-12-11T03:41:08;27.23;;;15.43;;
21472;SDS011;10898;48.072;11.682;2022-12-11T03:43:12;27.15;;;16.58;;
21472;SDS011;10898;48.072;11.682;2022-12-11T03:45:15;24.40;;;15.43;;
21472;SDS011;10898;48.072;11.682;2022-12-11T03:47:19;25.35;;;15.73;;
21472;SDS011;10898;48.072;11.682;2022-12-11T03:49:25;24.80;;;15.55;;
21472;SDS011;10898;48.072;11.682;2022-12-11T03:51:28;23.42;;;14.95;;
21472;SDS011;10898;48.072;11.682;2022-12-11T03:53:34;23.15;;;14.88;;
21472;SDS011;10898;48.072;11.682;2022-12-11T03:55:38;21.77;;;14.32;;
21472;SDS011;10898;48.072;11.682;2022-12-11T03:59:42;24.33;;;14.82;;
21472;SDS011;10898;48.072;11.682;2022-12-11T04:01:44;22.00;;;14.27;;
21472;SDS011;10898;48.072;11.682;2022-12-11T04:03:46;20.98;;;14.05;;
21472;SDS011;10898;48.072;11.682;2022-12-11T04:05:53;23.23;;;14.07;;
21472;SDS011;10898;48.072;11.682;2022-12-11T04:07:55;23.48;;;15.38;;
21472;SDS011;10898;48.072;11.682;2022-12-11T04:09:57;23.13;;;14.15;;
21472;SDS011;10898;48.072;11.682;2022-12-11T04:11:59;22.77;;;14.52;;
21472;SDS011;10898;48.072;11.682;2022-12-11T04:14:08;23.40;;;15.10;;
21472;SDS011;10898;48.072;11.682;2022-12-11T04:16:29;25.75;;;15.70;;
21472;SDS011;10898;48.072;11.682;2022-12-11T04:18:32;24.77;;;15.77;;
21472;SDS011;10898;48.072;11.682;2022-12-11T04:20:53;22.48;;;14.48;;
21472;SDS011;10898;48.072;11.682;2022-12-11T04:23:15;26.55;;;15.32;;
21472;SDS011;10898;48.072;11.682;2022-12-11T04:25:36;21.50;;;13.70;;
21472;SDS011;10898;48.072;11.682;2022-12-11T04:27:38;25.83;;;15.38;;
21472;SDS011;10898;48.072;11.682;2022-12-11T04:29:49;24.33;;;13.93;;
21472;SDS011;10898;48.072;11.682;2022-12-11T04:31:52;23.45;;;14.60;;
21472;SDS011;10898;48.072;11.682;2022-12-11T04:35:57;20.20;;;12.15;;
21472;SDS011;10898;48.072;11.682;2022-12-11T04:37:59;22.70;;;13.90;;
21472;SDS011;10898;48.072;11.682;2022-12-11T04:40:02;20.75;;;13.77;;
21472;SDS011;10898;48.072;11.682;2022-12-11T04:42:04;20.60;;;13.38;;
21472;SDS011;10898;48.072;11.682;2022-12-11T04:44:06;22.30;;;14.00;;
21472;SDS011;10898;48.072;11.682;2022-12-11T04:46:10;23.35;;;14.43;;
21472;SDS011;10898;48.072;11.682;2022-12-11T04:48:13;17.40;;;12.68;;
21472;SDS011;10898;48.072;11.682;2022-12-11T04:50:15;22.30;;;14.68;;
21472;SDS011;10898;48.072;11.682;2022-12-11T04:52:17;22.88;;;14.82;;
21472;SDS011;10898;48.072;11.682;2022-12-11T04:56:21;21.57;;;13.77;;
21472;SDS011;10898;48.072;11.682;2022-12-11T04:58:24;28.30;;;15.00;;
21472;SDS011;10898;48.072;11.682;2022-12-11T05:02:28;23.93;;;13.33;;
21472;SDS011;10898;48.072;11.682;2022-12-11T05:04:31;25.45;;;15.10;;
21472;SDS011;10898;48.072;11.682;2022-12-11T05:06:34;21.70;;;13.45;;
21472;SDS011;10898;48.072;11.682;2022-12-11T05:08:37;24.10;;;14.73;;
21472;SDS011;10898;48.072;11.682;2022-12-11T05:10:40;22.80;;;14.85;;
21472;SDS011;10898;48.072;11.682;2022-12-11T05:12:50;25.70;;;15.48;;
21472;SDS011;10898;48.072;11.682;2022-12-11T05:14:52;21.05;;;14.40;;
21472;SDS011;10898;48.072;11.682;2022-12-11T05:16:54;23.55;;;14.95;;
21472;SDS011;10898;48.072;11.682;2022-12-11T05:18:57;23.23;;;14.60;;
21472;SDS011;10898;48.072;11.682;2022-12-11T05:21:00;24.10;;;14.65;;
21472;SDS011;10898;48.072;11.682;2022-12-11T05:23:02;24.10;;;14.85;;
21472;SDS011;10898;48.072;11.682;2022-12-11T05:25:05;22.23;;;15.13;;
21472;SDS011;10898;48.072;11.682;2022-12-11T05:27:07;22.65;;;14.05;;
21472;SDS011;10898;48.072;11.682;2022-12-11T05:29:10;23.80;;;15.93;;
21472;SDS011;10898;48.072;11.682;2022-12-11T05:31:13;24.35;;;15.40;;
21472;SDS011;10898;48.072;11.682;2022-12-11T05:33:16;24.45;;;15.88;;
21472;SDS011;10898;48.072;11.682;2022-12-11T05:35:18;25.13;;;15.38;;
21472;SDS011;10898;48.072;11.682;2022-12-11T05:37:20;24.77;;;15.38;;
21472;SDS011;10898;48.072;11.682;2022-12-11T05:39:22;24.77;;;16.40;;
21472;SDS011;10898;48.072;11.682;2022-12-11T05:41:25;26.63;;;15.77;;
21472;SDS011;10898;48.072;11.682;2022-12-11T05:43:28;29.13;;;16.08;;
21472;SDS011;10898;48.072;11.682;2022-12-11T05:45:31;27.00;;;16.35;;
21472;SDS011;10898;48.072;11.682;2022-12-11T05:47:33;25.45;;;15.05;;
21472;SDS011;10898;48.072;11.682;2022-12-11T05:49:35;24.23;;;15.02;;
21472;SDS011;10898;48.072;11.682;2022-12-11T05:51:37;23.90;;;15.32;;
21472;SDS011;10898;48.072;11.682;2022-12-11T05:53:41;24.52;;;15.27;;
21472;SDS011;10898;48.072;11.682;2022-12-11T05:55:44;24.10;;;14.88;;
21472;SDS011;10898;48.072;11.682;2022-12-11T05:57:46;27.13;;;16.20;;
21472;SDS011;10898;48.072;11.682;2022-12-11T05:59:48;26.63;;;15.48;;
21472;SDS011;10898;48.072;11.682;2022-12-11T06:01:50;24.50;;;14.82;;
21472;SDS011;10898;48.072;11.682;2022-12-11T06:03:53;24.10;;;15.10;;
21472;SDS011;10898;48.072;11.682;2022-12-11T06:05:55;24.15;;;15.05;;
21472;SDS011;10898;48.072;11.682;2022-12-11T06:07:57;21.15;;;13.77;;
21472;SDS011;10898;48.072;11.682;2022-12-11T06:10:00;21.70;;;13.88;;
21472;SDS011;10898;48.072;11.682;2022-12-11T06:12:02;20.20;;;12.20;;
21472;SDS011;10898;48.072;11.682;2022-12-11T06:14:04;21.75;;;14.25;;
21472;SDS011;10898;48.072;11.682;2022-12-11T06:16:07;21.42;;;13.32;;
21472;SDS011;10898;48.072;11.682;2022-12-11T06:18:10;20.13;;;12.40;;
21472;SDS011;10898;48.072;11.682;2022-12-11T06:20:12;20.35;;;12.73;;
21472;SDS011;10898;48.072;11.682;2022-12-11T06:22:14;21.40;;;13.68;;
21472;SDS011;10898;48.072;11.682;2022-12-11T06:24:16;21.48;;;14.45;;
21472;SDS011;10898;48.072;11.682;2022-12-11T06:26:19;20.98;;;13.43;;
21472;SDS011;10898;48.072;11.682;2022-12-11T06:28:21;22.45;;;13.07;;
21472;SDS011;10898;48.072;11.682;2022-12-11T06:30:23;22.40;;;13.45;;
21472;SDS011;10898;48.072;11.682;2022-12-11T06:32:38;21.27;;;13.73;;
21472;SDS011;10898;48.072;11.682;2022-12-11T06:34:41;23.55;;;13.48;;
21472;SDS011;10898;48.072;11.682;2022-12-11T06:36:43;21.38;;;13.82;;
21472;SDS011;10898;48.072;11.682;2022-12-11T06:38:45;23.05;;;14.23;;
21472;SDS011;10898;48.072;11.682;2022-12-11T06:40:54;23.60;;;13.88;;
21472;SDS011;10898;48.072;11.682;2022-12-11T06:42:57;24.95;;;14.70;;
21472;SDS011;10898;48.072;11.682;2022-12-11T06:44:59;22.70;;;14.77;;
21472;SDS011;10898;48.072;11.682;2022-12-11T06:47:02;21.90;;;13.63;;
21472;SDS011;10898;48.072;11.682;2022-12-11T06:49:05;23.33;;;14.20;;
21472;SDS011;10898;48.072;11.682;2022-12-11T06:51:08;23.30;;;14.07;;
21472;SDS011;10898;48.072;11.682;2022-12-11T06:53:11;22.35;;;14.18;;
21472;SDS011;10898;48.072;11.682;2022-12-11T06:55:14;21.35;;;13.55;;
21472;SDS011;10898;48.072;11.682;2022-12-11T06:57:16;24.42;;;14.80;;
21472;SDS011;10898;48.072;11.682;2022-12-11T06:59:19;22.50;;;14.13;;
21472;SDS011;10898;48.072;11.682;2022-12-11T07:01:22;24.40;;;14.77;;
21472;SDS011;10898;48.072;11.682;2022-12-11T07:03:25;22.20;;;14.50;;
21472;SDS011;10898;48.072;11.682;2022-12-11T07:05:27;25.40;;;14.35;;
21472;SDS011;10898;48.072;11.682;2022-12-11T07:07:30;24.90;;;14.50;;
21472;SDS011;10898;48.072;11.682;2022-12-11T07:09:32;22.52;;;14.80;;
21472;SDS011;10898;48.072;11.682;2022-12-11T07:11:34;20.00;;;13.13;;
21472;SDS011;10898;48.072;11.682;2022-12-11T07:13:36;25.33;;;14.35;;
21472;SDS011;10898;48.072;11.682;2022-12-11T07:15:38;22.95;;;14.35;;
21472;SDS011;10898;48.072;11.682;2022-12-11T07:17:40;24.30;;;15.05;;
21472;SDS011;10898;48.072;11.682;2022-12-11T07:19:43;23.48;;;14.75;;
21472;SDS011;10898;48.072;11.682;2022-12-11T07:23:47;22.65;;;14.13;;
21472;SDS011;10898;48.072;11.682;2022-12-11T07:25:50;25.13;;;15.10;;
21472;SDS011;10898;48.072;11.682;2022-12-11T07:27:52;24.52;;;14.75;;
21472;SDS011;10898;48.072;11.682;2022-12-11T07:29:54;23.38;;;14.10;;
21472;SDS011;10898;48.072;11.682;2022-12-11T07:31:57;26.40;;;15.77;;
21472;SDS011;10898;48.072;11.682;2022-12-11T07:34:00;23.52;;;14.38;;
21472;SDS011;10898;48.072;11.682;2022-12-11T07:36:03;26.73;;;14.95;;
21472;SDS011;10898;48.072;11.682;2022-12-11T07:38:06;23.65;;;13.88;;
21472;SDS011;10898;48.072;11.682;2022-12-11T07:40:09;23.15;;;14.13;;
21472;SDS011;10898;48.072;11.682;2022-12-11T07:42:11;26.33;;;15.15;;
21472;SDS011;10898;48.072;11.682;2022-12-11T07:44:13;24.02;;;14.82;;
21472;SDS011;10898;48.072;11.682;2022-12-11T07:46:17;22.23;;;13.75;;
21472;SDS011;10898;48.072;11.682;2022-12-11T07:48:20;25.63;;;15.52;;
21472;SDS011;10898;48.072;11.682;2022-12-11T07:50:22;24.48;;;14.75;;
21472;SDS011;10898;48.072;11.682;2022-12-11T07:52:24;23.10;;;14.73;;
21472;SDS011;10898;48.072;11.682;2022-12-11T07:54:26;23.92;;;14.90;;
21472;SDS011;10898;48.072;11.682;2022-12-11T07:56:29;26.05;;;15.18;;
21472;SDS011;10898;48.072;11.682;2022-12-11T07:58:32;24.00;;;15.13;;
21472;SDS011;10898;48.072;11.682;2022-12-11T08:00:34;23.63;;;14.57;;
21472;SDS011;10898;48.072;11.682;2022-12-11T08:02:36;24.80;;;15.20;;
21472;SDS011;10898;48.072;11.682;2022-12-11T08:04:38;21.77;;;13.60;;
21472;SDS011;10898;48.072;11.682;2022-12-11T08:06:41;23.75;;;14.45;;
21472;SDS011;10898;48.072;11.682;2022-12-11T08:08:43;25.70;;;15.00;;
21472;SDS011;10898;48.072;11.682;2022-12-11T08:10:47;26.10;;;15.50;;
21472;SDS011;10898;48.072;11.682;2022-12-11T08:12:49;23.60;;;14.23;;
21472;SDS011;10898;48.072;11.682;2022-12-11T08:14:51;22.02;;;13.85;;
21472;SDS011;10898;48.072;11.682;2022-12-11T08:16:54;27.73;;;15.10;;
21472;SDS011;10898;48.072;11.682;2022-12-11T08:18:57;26.77;;;15.57;;
21472;SDS011;10898;48.072;11.682;2022-12-11T08:21:18;24.80;;;15.10;;
21472;SDS011;10898;48.072;11.682;2022-12-11T08:23:21;26.05;;;15.02;;
21472;SDS011;10898;48.072;11.682;2022-12-11T08:25:24;26.50;;;15.07;;
21472;SDS011;10898;48.072;11.682;2022-12-11T08:27:26;24.70;;;14.27;;
21472;SDS011;10898;48.072;11.682;2022-12-11T08:29:29;23.77;;;14.95;;
21472;SDS011;10898;48.072;11.682;2022-12-11T08:31:31;25.88;;;17.27;;
21472;SDS011;10898;48.072;11.682;2022-12-11T08:35:38;22.88;;;13.82;;
21472;SDS011;10898;48.072;11.682;2022-12-11T08:37:40;26.05;;;14.98;;
21472;SDS011;10898;48.072;11.682;2022-12-11T08:39:42;26.40;;;15.90;;
21472;SDS011;10898;48.072;11.682;2022-12-11T08:41:47;26.02;;;15.85;;
21472;SDS011;10898;48.072;11.682;2022-12-11T08:43:49;28.15;;;16.02;;
21472;SDS011;10898;48.072;11.682;2022-12-11T08:45:55;25.25;;;15.65;;
21472;SDS011;10898;48.072;11.682;2022-12-11T08:47:58;26.40;;;15.45;;
21472;SDS011;10898;48.072;11.682;2022-12-11T08:50:00;22.17;;;14.75;;
21472;SDS011;10898;48.072;11.682;2022-12-11T08:54:04;22.80;;;13.98;;
21472;SDS011;10898;48.072;11.682;2022-12-11T08:58:09;23.40;;;14.98;;
21472;SDS011;10898;48.072;11.682;2022-12-11T09:00:12;23.65;;;14.60;;
21472;SDS011;10898;48.072;11.682;2022-12-11T09:02:15;24.92;;;15.70;;
21472;SDS011;10898;48.072;11.682;2022-12-11T09:04:17;26.73;;;15.85;;
21472;SDS011;10898;48.072;11.682;2022-12-11T09:06:20;23.48;;;15.07;;
21472;SDS011;10898;48.072;11.682;2022-12-11T09:08:23;24.70;;;15.27;;
21472;SDS011;10898;48.072;11.682;2022-12-11T09:12:28;17.10;;;10.70;;
21472;SDS011;10898;48.072;11.682;2022-12-11T09:14:30;23.40;;;14.23;;
21472;SDS011;10898;48.072;11.682;2022-12-11T09:16:32;25.95;;;14.93;;
21472;SDS011;10898;48.072;11.682;2022-12-11T09:18:38;24.23;;;14.88;;
21472;SDS011;10898;48.072;11.682;2022-12-11T09:20:40;23.83;;;14.45;;
21472;SDS011;10898;48.072;11.682;2022-12-11T09:22:42;23.20;;;13.75;;
21472;SDS011;10898;48.072;11.682;2022-12-11T09:24:45;20.67;;;13.50;;
21472;SDS011;10898;48.072;11.682;2022-12-11T09:26:47;24.23;;;14.95;;
21472;SDS011;10898;48.072;11.682;2022-12-11T09:28:49;21.75;;;13.70;;
21472;SDS011;10898;48.072;11.682;2022-12-11T09:30:53;23.58;;;14.63;;
21472;SDS011;10898;48.072;11.682;2022-12-11T09:32:55;22.67;;;13.85;;
21472;SDS011;10898;48.072;11.682;2022-12-11T09:34:57;22.02;;;13.20;;
21472;SDS011;10898;48.072;11.682;2022-12-11T09:37:00;20.50;;;13.73;;
21472;SDS011;10898;48.072;11.682;2022-12-11T09:39:03;19.40;;;12.75;;
21472;SDS011;10898;48.072;11.682;2022-12-11T09:43:31;15.48;;;11.23;;
21472;SDS011;10898;48.072;11.682;2022-12-11T09:45:35;16.03;;;10.70;;
21472;SDS011;10898;48.072;11.682;2022-12-11T09:47:39;16.75;;;11.13;;
21472;SDS011;10898;48.072;11.682;2022-12-11T09:49:42;16.77;;;10.98;;
21472;SDS011;10898;48.072;11.682;2022-12-11T09:51:46;16.73;;;10.93;;
21472;SDS011;10898;48.072;11.682;2022-12-11T09:53:50;17.08;;;11.35;;
21472;SDS011;10898;48.072;11.682;2022-12-11T09:56:03;17.73;;;11.82;;
21472;SDS011;10898;48.072;11.682;2022-12-11T10:00:15;15.70;;;10.25;;
21472;SDS011;10898;48.072;11.682;2022-12-11T10:07:15;15.50;;;10.25;;
21472;SDS011;10898;48.072;11.682;2022-12-11T10:09:21;15.00;;;9.43;;
21472;SDS011;10898;48.072;11.682;2022-12-11T10:18:17;16.20;;;10.32;;
21472;SDS011;10898;48.072;11.682;2022-12-11T10:20:31;16.90;;;10.77;;
21472;SDS011;10898;48.072;11.682;2022-12-11T10:22:43;15.32;;;9.10;;
21472;SDS011;10898;48.072;11.682;2022-12-11T10:24:52;12.20;;;8.27;;
21472;SDS011;10898;48.072;11.682;2022-12-11T10:27:17;14.68;;;10.23;;
21472;SDS011;10898;48.072;11.682;2022-12-11T10:29:21;16.73;;;11.25;;
21472;SDS011;10898;48.072;11.682;2022-12-11T10:31:57;17.25;;;11.45;;
21472;SDS011;10898;48.072;11.682;2022-12-11T10:33:58;16.92;;;10.15;;
21472;SDS011;10898;48.072;11.682;2022-12-11T10:36:01;11.60;;;8.35;;
21472;SDS011;10898;48.072;11.682;2022-12-11T10:40:12;13.48;;;9.77;;
21472;SDS011;10898;48.072;11.682;2022-12-11T10:42:15;14.13;;;10.13;;
21472;SDS011;10898;48.072;11.682;2022-12-11T10:44:19;14.10;;;9.90;;
21472;SDS011;10898;48.072;11.682;2022-12-11T10:46:23;12.60;;;9.07;;
21472;SDS011;10898;48.072;11.682;2022-12-11T10:48:25;11.48;;;8.55;;
21472;SDS011;10898;48.072;11.682;2022-12-11T10:50:27;10.90;;;8.57;;
21472;SDS011;10898;48.072;11.682;2022-12-11T10:54:44;13.02;;;9.23;;
21472;SDS011;10898;48.072;11.682;2022-12-11T10:56:49;11.38;;;8.75;;
21472;SDS011;10898;48.072;11.682;2022-12-11T11:01:36;13.93;;;9.98;;
21472;SDS011;10898;48.072;11.682;2022-12-11T11:03:28;13.00;;;8.70;;
21472;SDS011;10898;48.072;11.682;2022-12-11T11:05:34;14.30;;;9.45;;
21472;SDS011;10898;48.072;11.682;2022-12-11T11:07:36;12.73;;;8.35;;
21472;SDS011;10898;48.072;11.682;2022-12-11T11:11:48;12.32;;;8.60;;
21472;SDS011;10898;48.072;11.682;2022-12-11T11:13:50;13.30;;;8.95;;
21472;SDS011;10898;48.072;11.682;2022-12-11T11:15:59;11.90;;;8.98;;
21472;SDS011;10898;48.072;11.682;2022-12-11T11:18:13;16.60;;;10.60;;
21472;SDS011;10898;48.072;11.682;2022-12-11T11:20:19;12.18;;;9.35;;
21472;SDS011;10898;48.072;11.682;2022-12-11T11:22:21;15.20;;;9.60;;
21472;SDS011;10898;48.072;11.682;2022-12-11T11:24:25;13.05;;;9.75;;
21472;SDS011;10898;48.072;11.682;2022-12-11T11:26:30;13.68;;;9.38;;
21472;SDS011;10898;48.072;11.682;2022-12-11T11:28:53;15.30;;;9.98;;
21472;SDS011;10898;48.072;11.682;2022-12-11T11:31:00;13.77;;;9.30;;
21472;SDS011;10898;48.072;11.682;2022-12-11T11:33:14;16.38;;;8.93;;
21472;SDS011;10898;48.072;11.682;2022-12-11T11:35:20;16.38;;;10.18;;
21472;SDS011;10898;48.072;11.682;2022-12-11T11:37:25;13.60;;;9.88;;
21472;SDS011;10898;48.072;11.682;2022-12-11T11:43:42;11.20;;;8.35;;
21472;SDS011;10898;48.072;11.682;2022-12-11T11:50:17;11.88;;;8.30;;
21472;SDS011;10898;48.072;11.682;2022-12-11T11:56:36;15.02;;;8.48;;
21472;SDS011;10898;48.072;11.682;2022-12-11T12:00:44;11.63;;;8.85;;
21472;SDS011;10898;48.072;11.682;2022-12-11T12:02:47;14.27;;;9.35;;
21472;SDS011;10898;48.072;11.682;2022-12-11T12:04:50;13.02;;;9.30;;
21472;SDS011;10898;48.072;11.682;2022-12-11T12:17:31;14.43;;;9.38;;
21472;SDS011;10898;48.072;11.682;2022-12-11T12:21:45;13.57;;;9.05;;
21472;SDS011;10898;48.072;11.682;2022-12-11T12:28:31;15.10;;;9.63;;
21472;SDS011;10898;48.072;11.682;2022-12-11T12:31:23;13.10;;;8.85;;
21472;SDS011;10898;48.072;11.682;2022-12-11T12:35:36;14.45;;;9.20;;
21472;SDS011;10898;48.072;11.682;2022-12-11T12:37:46;15.32;;;9.70;;
21472;SDS011;10898;48.072;11.682;2022-12-11T12:44:22;12.60;;;9.43;;
21472;SDS011;10898;48.072;11.682;2022-12-11T12:48:27;12.45;;;8.98;;
21472;SDS011;10898;48.072;11.682;2022-12-11T12:50:35;14.00;;;8.40;;
21472;SDS011;10898;48.072;11.682;2022-12-11T12:52:38;10.93;;;7.55;;
21472;SDS011;10898;48.072;11.682;2022-12-11T12:54:41;14.02;;;9.20;;
21472;SDS011;10898;48.072;11.682;2022-12-11T12:57:05;10.68;;;8.10;;
21472;SDS011;10898;48.072;11.682;2022-12-11T13:01:24;12.00;;;8.52;;
21472;SDS011;10898;48.072;11.682;2022-12-11T13:03:31;11.45;;;8.00;;
21472;SDS011;10898;48.072;11.682;2022-12-11T13:05:33;12.73;;;8.27;;
21472;SDS011;10898;48.072;11.682;2022-12-11T13:07:35;11.68;;;8.27;;
21472;SDS011;10898;48.072;11.682;2022-12-11T13:09:38;10.02;;;7.68;;
21472;SDS011;10898;48.072;11.682;2022-12-11T13:11:40;12.88;;;8.50;;
21472;SDS011;10898;48.072;11.682;2022-12-11T13:13:44;12.43;;;7.22;;
21472;SDS011;10898;48.072;11.682;2022-12-11T13:15:54;11.17;;;7.67;;
21472;SDS011;10898;48.072;11.682;2022-12-11T13:18:29;11.20;;;7.95;;
21472;SDS011;10898;48.072;11.682;2022-12-11T13:20:30;9.77;;;7.20;;
21472;SDS011;10898;48.072;11.682;2022-12-11T13:22:32;11.00;;;6.90;;
21472;SDS011;10898;48.072;11.682;2022-12-11T13:24:43;9.77;;;7.40;;
21472;SDS011;10898;48.072;11.682;2022-12-11T13:26:46;10.45;;;7.63;;
21472;SDS011;10898;48.072;11.682;2022-12-11T13:28:49;10.50;;;7.20;;
21472;SDS011;10898;48.072;11.682;2022-12-11T13:30:56;11.05;;;7.40;;
21472;SDS011;10898;48.072;11.682;2022-12-11T13:35:03;12.55;;;8.73;;
21472;SDS011;10898;48.072;11.682;2022-12-11T13:37:06;10.32;;;7.85;;
21472;SDS011;10898;48.072;11.682;2022-12-11T13:39:26;11.48;;;8.00;;
21472;SDS011;10898;48.072;11.682;2022-12-11T13:41:31;11.50;;;7.95;;
21472;SDS011;10898;48.072;11.682;2022-12-11T13:43:34;12.32;;;7.60;;
21472;SDS011;10898;48.072;11.682;2022-12-11T13:45:50;10.75;;;7.85;;
21472;SDS011;10898;48.072;11.682;2022-12-11T13:47:56;11.00;;;8.27;;
21472;SDS011;10898;48.072;11.682;2022-12-11T13:50:10;10.48;;;7.72;;
21472;SDS011;10898;48.072;11.682;2022-12-11T13:52:16;9.32;;;7.55;;